Time;durP1;ratioP1;P1;durP2;ratioP2;P2;SDS_P1;SDS_P2;PMS_P1;PMS_P2;Temp;Humidity;BMP_temperature;BMP_pressure;BME280_temperature;BME280_humidity;BME280_pressure;Samples;Min_cycle;Max_cycle;Signal;HPM_P1;HPM_P2
2024/04/08 00:01:32;;;;;;;4.25;1.50;;;;;;;;;;5055240;28;20032;-58
2024/04/08 00:03:58;;;;;;;2.95;1.50;;;;;;;;;;5054911;28;20462;-58
2024/04/08 00:06:24;;;;;;;7.63;1.35;;;;;;;;;;5055157;28;20029;-58
2024/04/08 00:08:50;;;;;;;4.30;1.58;;;;;;;;;;5055647;28;20043;-58
2024/04/08 00:11:16;;;;;;;5.85;1.30;;;;;;;;;;5054985;28;20029;-58
2024/04/08 00:13:42;;;;;;;5.25;2.05;;;;;;;;;;5055504;28;20029;-58
2024/04/08 00:16:08;;;;;;;3.47;1.33;;;;;;;;;;5054898;28;20086;-58
2024/04/08 00:18:34;;;;;;;4.25;1.88;;;;;;;;;;5055018;28;20381;-58
2024/04/08 00:21:00;;;;;;;4.28;2.05;;;;;;;;;;5054449;28;20017;-58
2024/04/08 00:23:26;;;;;;;3.72;1.33;;;;;;;;;;5054771;28;20060;-58
2024/04/08 00:25:52;;;;;;;6.57;1.60;;;;;;;;;;5054755;28;20104;-58
2024/04/08 00:28:18;;;;;;;3.28;1.20;;;;;;;;;;5055087;28;20025;-58
2024/04/08 00:30:44;;;;;;;3.35;1.60;;;;;;;;;;5054673;28;20039;-58
2024/04/08 00:33:10;;;;;;;3.78;1.70;;;;;;;;;;5055116;28;20013;-57
2024/04/08 00:35:36;;;;;;;4.47;1.45;;;;;;;;;;5054543;28;20108;-58
2024/04/08 00:38:02;;;;;;;4.82;1.85;;;;;;;;;;5055072;28;20063;-58
2024/04/08 00:40:35;;;;;;;2.97;1.42;;;;;;;;;;5054777;28;20021;-58
2024/04/08 00:43:02;;;;;;;2.75;0.98;;;;;;;;;;5054906;28;20025;-58
2024/04/08 00:45:29;;;;;;;4.10;1.92;;;;;;;;;;5054382;28;20191;-58
2024/04/08 00:47:54;;;;;;;3.00;1.50;;;;;;;;;;5054879;28;20032;-58
2024/04/08 00:50:21;;;;;;;4.88;1.55;;;;;;;;;;5054199;28;20028;-58
2024/04/08 00:52:47;;;;;;;7.65;1.95;;;;;;;;;;5054287;28;20383;-58
2024/04/08 00:55:13;;;;;;;3.72;1.67;;;;;;;;;;5054721;28;20458;-58
2024/04/08 00:57:39;;;;;;;5.30;1.95;;;;;;;;;;5054876;28;20048;-58
2024/04/08 01:00:06;;;;;;;3.05;1.38;;;;;;;;;;5054896;28;20025;-57
2024/04/08 01:02:31;;;;;;;3.15;1.42;;;;;;;;;;5054039;28;20024;-58
2024/04/08 01:04:57;;;;;;;3.13;1.35;;;;;;;;;;5054051;28;20032;-57
2024/04/08 01:07:23;;;;;;;3.65;1.63;;;;;;;;;;5054565;28;20108;-58
2024/04/08 01:09:49;;;;;;;7.07;2.13;;;;;;;;;;5054566;28;20035;-58
2024/04/08 01:12:15;;;;;;;3.00;1.75;;;;;;;;;;5054184;28;20039;-58
2024/04/08 01:14:41;;;;;;;5.30;1.88;;;;;;;;;;5054683;28;20458;-58
2024/04/08 01:17:07;;;;;;;3.15;1.95;;;;;;;;;;5054407;28;20336;-57
2024/04/08 01:19:33;;;;;;;5.55;1.58;;;;;;;;;;5054509;28;20424;-58
2024/04/08 01:21:59;;;;;;;6.70;1.58;;;;;;;;;;5053747;28;20031;-58
2024/04/08 01:24:26;;;;;;;1.85;0.95;;;;;;;;;;5054243;28;20053;-58
2024/04/08 01:26:52;;;;;;;4.30;1.48;;;;;;;;;;5053761;28;20410;-58
2024/04/08 01:29:18;;;;;;;3.70;1.13;;;;;;;;;;5054321;28;20024;-58
2024/04/08 01:31:44;;;;;;;2.85;1.58;;;;;;;;;;5053014;28;20032;-58
2024/04/08 01:34:10;;;;;;;3.60;1.88;;;;;;;;;;5054176;28;20028;-58
2024/04/08 01:36:36;;;;;;;5.78;1.58;;;;;;;;;;5053700;28;20021;-58
2024/04/08 01:39:02;;;;;;;6.18;1.42;;;;;;;;;;5053945;28;20184;-58
2024/04/08 01:41:28;;;;;;;4.15;1.73;;;;;;;;;;5053296;28;20021;-59
2024/04/08 01:43:54;;;;;;;3.83;1.65;;;;;;;;;;5053199;28;20036;-57
2024/04/08 01:46:20;;;;;;;4.40;1.50;;;;;;;;;;5054057;28;20033;-58
2024/04/08 01:48:46;;;;;;;8.82;1.73;;;;;;;;;;5054123;28;20509;-57
2024/04/08 01:51:11;;;;;;;3.55;1.85;;;;;;;;;;5053167;28;20410;-58
2024/04/08 01:53:37;;;;;;;4.43;1.73;;;;;;;;;;5053807;28;20116;-58
2024/04/08 01:56:04;;;;;;;6.45;1.70;;;;;;;;;;5053270;28;20402;-57
2024/04/08 01:58:30;;;;;;;3.22;1.35;;;;;;;;;;5054359;28;20482;-58
2024/04/08 02:00:56;;;;;;;3.88;1.20;;;;;;;;;;5053396;28;20029;-57
2024/04/08 02:03:22;;;;;;;3.10;1.50;;;;;;;;;;5053966;28;20026;-58
2024/04/08 02:05:48;;;;;;;2.60;1.42;;;;;;;;;;5053406;28;20055;-58
2024/04/08 02:08:14;;;;;;;6.03;1.50;;;;;;;;;;5053893;28;20108;-58
2024/04/08 02:10:40;;;;;;;12.07;1.92;;;;;;;;;;5053220;28;20028;-58
2024/04/08 02:13:06;;;;;;;5.40;1.38;;;;;;;;;;5053836;28;20070;-58
2024/04/08 02:15:32;;;;;;;2.08;1.23;;;;;;;;;;5053259;28;20017;-57
2024/04/08 02:17:58;;;;;;;5.68;1.52;;;;;;;;;;5053799;28;20021;-58
2024/04/08 02:20:24;;;;;;;8.45;1.95;;;;;;;;;;5052926;28;20025;-57
2024/04/08 02:22:49;;;;;;;3.63;1.38;;;;;;;;;;5053240;28;20107;-58
2024/04/08 02:25:15;;;;;;;5.13;2.17;;;;;;;;;;5053351;28;20112;-58
2024/04/08 02:27:41;;;;;;;3.47;1.73;;;;;;;;;;5053160;28;20041;-57
2024/04/08 02:30:08;;;;;;;2.63;1.30;;;;;;;;;;5053896;28;20021;-58
2024/04/08 02:32:34;;;;;;;4.00;1.40;;;;;;;;;;5052816;28;20107;-58
2024/04/08 02:35:00;;;;;;;7.22;2.30;;;;;;;;;;5053853;28;20355;-58
2024/04/08 02:37:25;;;;;;;3.65;1.63;;;;;;;;;;5053086;28;20536;-58
2024/04/08 02:39:52;;;;;;;3.97;1.90;;;;;;;;;;5053629;28;20447;-59
2024/04/08 02:42:17;;;;;;;5.88;2.25;;;;;;;;;;5053931;28;20405;-58
2024/04/08 02:44:43;;;;;;;7.03;2.08;;;;;;;;;;5056737;28;20025;-58
2024/04/08 02:47:09;;;;;;;3.38;1.33;;;;;;;;;;5057213;28;20025;-58
2024/04/08 02:49:35;;;;;;;2.03;1.08;;;;;;;;;;5056717;28;20056;-58
2024/04/08 02:52:01;;;;;;;7.55;1.63;;;;;;;;;;5056232;28;20180;-58
2024/04/08 02:54:27;;;;;;;3.10;1.50;;;;;;;;;;5056551;28;20021;-58
2024/04/08 02:56:53;;;;;;;3.83;1.50;;;;;;;;;;5056437;28;20045;-58
2024/04/08 02:59:19;;;;;;;3.80;1.30;;;;;;;;;;5056484;28;20028;-58
2024/04/08 03:01:45;;;;;;;6.75;2.00;;;;;;;;;;5056646;28;20110;-57
2024/04/08 03:04:11;;;;;;;3.85;1.67;;;;;;;;;;5056354;28;20083;-57
2024/04/08 03:06:37;;;;;;;3.95;1.85;;;;;;;;;;5056799;28;20394;-57
2024/04/08 03:09:05;;;;;;;4.10;1.25;;;;;;;;;;5056269;28;20029;-57
2024/04/08 03:11:31;;;;;;;3.53;1.60;;;;;;;;;;5056126;28;20065;-58
2024/04/08 03:13:57;;;;;;;7.88;1.65;;;;;;;;;;5056076;28;20078;-58
2024/04/08 03:16:23;;;;;;;4.35;1.88;;;;;;;;;;5056938;28;20021;-58
2024/04/08 03:18:50;;;;;;;5.15;1.65;;;;;;;;;;5056677;28;20021;-58
2024/04/08 03:21:16;;;;;;;3.30;1.40;;;;;;;;;;5056105;28;20458;-56
2024/04/08 03:23:42;;;;;;;2.63;1.45;;;;;;;;;;5056526;28;20018;-58
2024/04/08 03:26:12;;;;;;;7.43;1.67;;;;;;;;;;5055946;28;20033;-59
2024/04/08 03:28:38;;;;;;;6.15;1.63;;;;;;;;;;5056781;28;20332;-58
2024/04/08 03:31:05;;;;;;;4.93;1.40;;;;;;;;;;5055772;28;20082;-57
2024/04/08 03:33:32;;;;;;;3.10;1.42;;;;;;;;;;5056300;28;20447;-57
2024/04/08 03:35:58;;;;;;;3.22;1.50;;;;;;;;;;5055778;28;20104;-59
2024/04/08 03:38:23;;;;;;;5.72;2.03;;;;;;;;;;5056225;28;20029;-57
2024/04/08 03:41:02;;;;;;;13.90;2.55;;;;;;;;;;5055617;28;20033;-58
2024/04/08 03:43:28;;;;;;;10.40;1.65;;;;;;;;;;5055619;28;20031;-58
2024/04/08 03:45:55;;;;;;;4.40;1.42;;;;;;;;;;5055250;28;20025;-57
2024/04/08 03:48:21;;;;;;;6.50;1.58;;;;;;;;;;5056087;28;20036;-57
2024/04/08 03:50:47;;;;;;;5.10;1.77;;;;;;;;;;5055167;28;20029;-56
2024/04/08 03:53:13;;;;;;;2.92;1.35;;;;;;;;;;5055612;28;20359;-57
2024/04/08 03:55:39;;;;;;;4.68;1.80;;;;;;;;;;5054526;28;20451;-57
2024/04/08 03:58:05;;;;;;;2.78;1.38;;;;;;;;;;5056139;28;20056;-57
2024/04/08 04:00:31;;;;;;;4.15;1.92;;;;;;;;;;5055427;28;20029;-58
2024/04/08 04:02:57;;;;;;;6.80;1.40;;;;;;;;;;5055400;28;20025;-55
2024/04/08 04:05:23;;;;;;;7.05;1.98;;;;;;;;;;5055323;28;20367;-57
2024/04/08 04:07:49;;;;;;;4.32;1.92;;;;;;;;;;5055528;28;20079;-57
2024/04/08 04:10:17;;;;;;;2.83;1.55;;;;;;;;;;5055710;28;20347;-57
2024/04/08 04:12:43;;;;;;;3.63;1.77;;;;;;;;;;5055144;28;20025;-57
2024/04/08 04:15:11;;;;;;;3.92;1.73;;;;;;;;;;5055599;28;20021;-57
2024/04/08 04:17:37;;;;;;;2.45;1.35;;;;;;;;;;5054822;28;20470;-59
2024/04/08 04:20:05;;;;;;;4.00;2.05;;;;;;;;;;5055389;28;20033;-59
2024/04/08 04:22:30;;;;;;;4.57;1.98;;;;;;;;;;5054695;28;20119;-59
2024/04/08 04:24:56;;;;;;;11.23;2.35;;;;;;;;;;5054876;28;20109;-59
2024/04/08 04:27:22;;;;;;;5.63;1.67;;;;;;;;;;5054846;28;20049;-59
2024/04/08 04:29:48;;;;;;;5.28;2.10;;;;;;;;;;5054742;28;20033;-57
2024/04/08 04:32:14;;;;;;;4.70;1.35;;;;;;;;;;5055317;28;20131;-56
2024/04/08 04:34:40;;;;;;;3.60;1.55;;;;;;;;;;5054597;28;20040;-57
2024/04/08 04:37:06;;;;;;;3.88;1.73;;;;;;;;;;5054551;28;20520;-56
2024/04/08 04:39:32;;;;;;;2.28;1.35;;;;;;;;;;5054621;28;20116;-57
2024/04/08 04:41:58;;;;;;;4.85;1.60;;;;;;;;;;5054522;28;20064;-56
2024/04/08 04:44:24;;;;;;;5.10;1.60;;;;;;;;;;5054394;28;20021;-57
2024/04/08 04:46:50;;;;;;;6.72;1.67;;;;;;;;;;5054391;28;20463;-56
2024/04/08 04:49:17;;;;;;;4.63;2.33;;;;;;;;;;5054342;28;20059;-57
2024/04/08 04:51:43;;;;;;;6.38;1.38;;;;;;;;;;5054150;28;20119;-57
2024/04/08 04:54:09;;;;;;;4.82;1.65;;;;;;;;;;5054283;28;20071;-56
2024/04/08 04:56:35;;;;;;;4.65;2.47;;;;;;;;;;5053794;28;20380;-58
2024/04/08 04:59:01;;;;;;;3.63;1.60;;;;;;;;;;5054164;28;20387;-58
2024/04/08 05:01:27;;;;;;;4.50;1.50;;;;;;;;;;5054107;28;20032;-59
2024/04/08 05:03:53;;;;;;;6.45;1.67;;;;;;;;;;5054091;28;20017;-59
2024/04/08 05:06:19;;;;;;;3.83;1.80;;;;;;;;;;5054658;28;20025;-59
2024/04/08 05:08:46;;;;;;;4.40;2.05;;;;;;;;;;5054784;28;20025;-58
2024/04/08 05:11:12;;;;;;;4.18;1.83;;;;;;;;;;5053884;28;20043;-59
2024/04/08 05:13:38;;;;;;;4.55;2.38;;;;;;;;;;5054280;28;20100;-59
2024/04/08 05:16:04;;;;;;;4.22;2.13;;;;;;;;;;5054276;28;20025;-59
2024/04/08 05:18:31;;;;;;;6.38;1.83;;;;;;;;;;5054693;28;20025;-59
2024/04/08 05:21:02;;;;;;;3.97;2.17;;;;;;;;;;5053540;28;20111;-60
2024/04/08 05:23:28;;;;;;;2.83;1.60;;;;;;;;;;5053932;28;20040;-59
2024/04/08 05:25:54;;;;;;;6.35;2.28;;;;;;;;;;5053614;28;20025;-59
2024/04/08 05:28:21;;;;;;;4.85;2.42;;;;;;;;;;5054342;28;20052;-59
2024/04/08 05:30:47;;;;;;;10.18;2.15;;;;;;;;;;5053651;28;20382;-59
2024/04/08 05:33:13;;;;;;;5.03;2.25;;;;;;;;;;5053751;28;20067;-59
2024/04/08 05:35:46;;;;;;;7.18;2.35;;;;;;;;;;5053699;28;20029;-59
2024/04/08 05:38:12;;;;;;;3.90;2.03;;;;;;;;;;5053881;28;20020;-59
2024/04/08 05:40:38;;;;;;;3.22;1.60;;;;;;;;;;5054186;28;20025;-60
2024/04/08 05:43:05;;;;;;;8.20;2.15;;;;;;;;;;5053908;28;20079;-59
2024/04/08 05:45:31;;;;;;;6.18;1.73;;;;;;;;;;5053798;28;20025;-59
2024/04/08 05:47:57;;;;;;;4.80;1.80;;;;;;;;;;5053997;28;20470;-59
2024/04/08 05:50:23;;;;;;;2.92;1.65;;;;;;;;;;5053992;28;20021;-59
2024/04/08 05:52:55;;;;;;;7.53;1.92;;;;;;;;;;5054250;28;20030;-59
2024/04/08 05:55:21;;;;;;;5.40;1.90;;;;;;;;;;5053476;28;20025;-58
2024/04/08 05:57:47;;;;;;;4.97;1.98;;;;;;;;;;5054279;28;20144;-59
2024/04/08 06:00:18;;;;;;;5.13;2.67;;;;;;;;;;5053300;28;20021;-59
2024/04/08 06:02:49;;;;;;;3.08;1.98;;;;;;;;;;5054040;28;20379;-59
2024/04/08 06:05:15;;;;;;;2.63;1.55;;;;;;;;;;5053485;28;20404;-59
2024/04/08 06:07:41;;;;;;;8.23;2.10;;;;;;;;;;5053082;28;20051;-59
2024/04/08 06:10:08;;;;;;;3.72;1.60;;;;;;;;;;5053582;28;20355;-59
2024/04/08 06:12:34;;;;;;;8.68;1.95;;;;;;;;;;5053554;28;20348;-59
2024/04/08 06:15:00;;;;;;;7.95;2.30;;;;;;;;;;5052937;28;20155;-59
2024/04/08 06:17:26;;;;;;;5.60;1.83;;;;;;;;;;5054606;28;20379;-59
2024/04/08 06:19:52;;;;;;;6.25;2.40;;;;;;;;;;5057522;28;20021;-59
2024/04/08 06:22:18;;;;;;;8.65;2.08;;;;;;;;;;5057179;28;20033;-59
2024/04/08 06:24:44;;;;;;;4.10;1.80;;;;;;;;;;5057446;28;20033;-59
2024/04/08 06:27:10;;;;;;;2.75;1.50;;;;;;;;;;5057101;28;20025;-59
2024/04/08 06:29:36;;;;;;;4.88;1.83;;;;;;;;;;5057711;28;20517;-59
2024/04/08 06:32:03;;;;;;;3.58;1.98;;;;;;;;;;5056888;28;20032;-59
2024/04/08 06:34:29;;;;;;;6.18;1.40;;;;;;;;;;5057415;28;20047;-59
2024/04/08 06:36:55;;;;;;;5.80;2.13;;;;;;;;;;5056951;28;20367;-59
2024/04/08 06:39:21;;;;;;;5.43;1.77;;;;;;;;;;5057705;28;20024;-59
2024/04/08 06:41:47;;;;;;;2.97;1.65;;;;;;;;;;5057357;28;20036;-59
2024/04/08 06:44:13;;;;;;;2.85;2.00;;;;;;;;;;5056787;28;20104;-59
2024/04/08 06:46:39;;;;;;;6.05;2.65;;;;;;;;;;5056513;28;20374;-59
2024/04/08 06:49:05;;;;;;;3.90;1.83;;;;;;;;;;5057343;28;20021;-59
2024/04/08 06:51:31;;;;;;;4.00;2.20;;;;;;;;;;5056255;28;20372;-59
2024/04/08 06:53:57;;;;;;;8.10;2.47;;;;;;;;;;5057019;28;20025;-59
2024/04/08 06:56:23;;;;;;;7.28;2.15;;;;;;;;;;5056909;28;20135;-59
2024/04/08 06:58:49;;;;;;;8.70;2.40;;;;;;;;;;5056187;28;20021;-59
2024/04/08 07:01:16;;;;;;;5.88;2.38;;;;;;;;;;5056497;28;20029;-59
2024/04/08 07:03:41;;;;;;;7.65;1.98;;;;;;;;;;5056489;28;20067;-59
2024/04/08 07:06:08;;;;;;;3.22;1.90;;;;;;;;;;5056954;28;20447;-59
2024/04/08 07:08:35;;;;;;;6.28;2.13;;;;;;;;;;5056923;28;20052;-59
2024/04/08 07:11:01;;;;;;;5.47;1.70;;;;;;;;;;5056122;28;20040;-59
2024/04/08 07:13:27;;;;;;;6.13;2.22;;;;;;;;;;5056022;28;20375;-59
2024/04/08 07:15:56;;;;;;;6.13;2.75;;;;;;;;;;5056264;28;20025;-59
2024/04/08 07:18:23;;;;;;;3.63;2.03;;;;;;;;;;5056165;28;20344;-59
2024/04/08 07:20:49;;;;;;;3.05;1.42;;;;;;;;;;5055828;28;20052;-59
2024/04/08 07:23:15;;;;;;;16.23;3.05;;;;;;;;;;5056027;28;20077;-59
2024/04/08 07:25:41;;;;;;;3.13;1.60;;;;;;;;;;5056022;28;20021;-59
2024/04/08 07:28:07;;;;;;;6.45;2.20;;;;;;;;;;5055984;28;20028;-59
2024/04/08 07:30:35;;;;;;;8.77;2.35;;;;;;;;;;5056289;28;20378;-59
2024/04/08 07:33:01;;;;;;;9.43;1.52;;;;;;;;;;5055912;28;20055;-59
2024/04/08 07:35:27;;;;;;;6.95;2.13;;;;;;;;;;5056430;28;20021;-59
2024/04/08 07:37:53;;;;;;;3.15;1.80;;;;;;;;;;5055792;28;20025;-59
2024/04/08 07:40:19;;;;;;;7.82;2.38;;;;;;;;;;5056412;28;20029;-59
2024/04/08 07:42:45;;;;;;;3.17;1.33;;;;;;;;;;5055446;28;20180;-59
2024/04/08 07:45:11;;;;;;;5.13;2.42;;;;;;;;;;5056495;28;20439;-59
2024/04/08 07:47:37;;;;;;;5.28;1.55;;;;;;;;;;5056129;28;20028;-59
2024/04/08 07:50:05;;;;;;;5.28;2.25;;;;;;;;;;5056302;28;20362;-59
2024/04/08 07:52:32;;;;;;;4.10;1.52;;;;;;;;;;5055489;28;20021;-59
2024/04/08 07:54:58;;;;;;;4.63;1.90;;;;;;;;;;5055366;28;20029;-59
2024/04/08 07:57:24;;;;;;;5.53;2.08;;;;;;;;;;5055411;28;20394;-59
2024/04/08 07:59:52;;;;;;;7.28;2.42;;;;;;;;;;5055259;28;20029;-59
2024/04/08 08:02:18;;;;;;;4.93;2.42;;;;;;;;;;5055989;28;20028;-59
2024/04/08 08:04:43;;;;;;;4.05;2.22;;;;;;;;;;5055300;28;20021;-59
2024/04/08 08:07:09;;;;;;;5.95;1.55;;;;;;;;;;5055334;28;20048;-59
2024/04/08 08:09:35;;;;;;;7.95;1.85;;;;;;;;;;5055990;28;20448;-59
2024/04/08 08:12:02;;;;;;;3.55;1.50;;;;;;;;;;5054748;28;20025;-59
2024/04/08 08:14:27;;;;;;;3.45;1.98;;;;;;;;;;5055079;28;20027;-59
2024/04/08 08:16:53;;;;;;;7.85;2.15;;;;;;;;;;5055059;28;20104;-59
2024/04/08 08:19:19;;;;;;;3.22;2.05;;;;;;;;;;5055630;28;20112;-59
2024/04/08 08:21:45;;;;;;;3.90;2.05;;;;;;;;;;5054945;28;20048;-59
2024/04/08 08:24:12;;;;;;;7.20;2.03;;;;;;;;;;5054918;28;20107;-59
2024/04/08 08:26:38;;;;;;;4.35;1.65;;;;;;;;;;5055395;28;20021;-59
2024/04/08 08:29:04;;;;;;;6.95;2.13;;;;;;;;;;5055418;28;20104;-59
2024/04/08 08:31:29;;;;;;;15.57;2.78;;;;;;;;;;5054728;28;20371;-59
2024/04/08 08:33:55;;;;;;;3.65;1.80;;;;;;;;;;5054651;28;20056;-59
2024/04/08 08:36:21;;;;;;;7.47;1.80;;;;;;;;;;5055316;28;20047;-59
2024/04/08 08:38:47;;;;;;;4.80;1.75;;;;;;;;;;5054922;28;20025;-59
2024/04/08 08:41:16;;;;;;;4.25;1.67;;;;;;;;;;5054348;28;20036;-59
2024/04/08 08:43:43;;;;;;;4.75;1.90;;;;;;;;;;5054455;28;20064;-59
2024/04/08 08:46:09;;;;;;;3.97;1.75;;;;;;;;;;5054535;28;20028;-60
2024/04/08 08:48:38;;;;;;;4.97;1.85;;;;;;;;;;5054286;28;20116;-59
2024/04/08 08:51:05;;;;;;;3.75;1.75;;;;;;;;;;5054836;28;20037;-59
2024/04/08 08:53:31;;;;;;;3.92;1.65;;;;;;;;;;5054116;28;20036;-59
2024/04/08 08:55:58;;;;;;;4.60;1.92;;;;;;;;;;5054053;28;20021;-59
2024/04/08 08:58:25;;;;;;;3.03;1.67;;;;;;;;;;5054514;28;20443;-59
2024/04/08 09:00:51;;;;;;;3.85;1.25;;;;;;;;;;5054095;28;20029;-59
2024/04/08 09:03:17;;;;;;;6.32;1.70;;;;;;;;;;5054978;28;20040;-59
2024/04/08 09:05:43;;;;;;;8.57;1.50;;;;;;;;;;5054590;28;20028;-59
2024/04/08 09:08:10;;;;;;;10.25;1.55;;;;;;;;;;5054424;28;20029;-59
2024/04/08 09:10:42;;;;;;;4.18;1.88;;;;;;;;;;5054601;28;20448;-59
2024/04/08 09:13:25;;;;;;;3.53;1.40;;;;;;;;;;5054061;28;20025;-59
2024/04/08 09:15:51;;;;;;;6.88;2.05;;;;;;;;;;5053805;28;20494;-59
2024/04/08 09:18:17;;;;;;;6.85;1.80;;;;;;;;;;5054248;28;20017;-59
2024/04/08 09:20:44;;;;;;;2.97;1.80;;;;;;;;;;5053967;28;20071;-59
2024/04/08 09:23:10;;;;;;;9.25;1.70;;;;;;;;;;5053976;28;20033;-59
2024/04/08 09:25:36;;;;;;;2.85;1.20;;;;;;;;;;5054420;28;20112;-59
2024/04/08 09:28:02;;;;;;;8.65;2.35;;;;;;;;;;5054665;28;20033;-59
2024/04/08 09:30:28;;;;;;;2.92;1.35;;;;;;;;;;5053847;28;20028;-59
2024/04/08 09:32:54;;;;;;;4.22;1.35;;;;;;;;;;5054351;28;20070;-59
2024/04/08 09:35:21;;;;;;;4.18;1.33;;;;;;;;;;5053796;28;20029;-60
2024/04/08 09:37:47;;;;;;;3.90;1.60;;;;;;;;;;5053808;28;20399;-59
2024/04/08 09:40:15;;;;;;;3.63;1.92;;;;;;;;;;5054303;28;20032;-60
2024/04/08 09:42:41;;;;;;;2.53;1.40;;;;;;;;;;5053985;28;20029;-60
2024/04/08 09:45:09;;;;;;;9.02;1.73;;;;;;;;;;5053531;28;20032;-60
2024/04/08 09:47:37;;;;;;;4.22;1.42;;;;;;;;;;5054101;28;20078;-60
2024/04/08 09:50:04;;;;;;;1.55;0.80;;;;;;;;;;5053635;28;20100;-60
2024/04/08 09:52:30;;;;;;;2.60;1.38;;;;;;;;;;5054958;28;20378;-60
2024/04/08 09:54:56;;;;;;;6.25;1.73;;;;;;;;;;5057733;28;20107;-60
2024/04/08 09:57:26;;;;;;;5.68;1.77;;;;;;;;;;5057577;28;20057;-60
2024/04/08 09:59:59;;;;;;;4.93;1.10;;;;;;;;;;5058479;28;20017;-60
2024/04/08 10:02:36;;;;;;;5.85;2.00;;;;;;;;;;5057616;28;20024;-60
2024/04/08 10:05:03;;;;;;;3.72;1.77;;;;;;;;;;5057535;28;20029;-60
2024/04/08 10:07:29;;;;;;;2.70;1.73;;;;;;;;;;5057397;28;20036;-60
2024/04/08 10:09:56;;;;;;;4.55;1.38;;;;;;;;;;5058006;28;20025;-60
2024/04/08 10:12:32;;;;;;;1.90;0.98;;;;;;;;;;5057056;28;20075;-60
2024/04/08 10:15:08;;;;;;;3.63;1.50;;;;;;;;;;5057377;28;20025;-60
2024/04/08 10:17:34;;;;;;;8.23;1.73;;;;;;;;;;5057400;28;20352;-60
2024/04/08 10:20:02;;;;;;;5.50;2.25;;;;;;;;;;5058168;28;20051;-60
2024/04/08 10:22:29;;;;;;;7.65;1.63;;;;;;;;;;5057286;28;20112;-60
2024/04/08 10:24:55;;;;;;;9.65;2.22;;;;;;;;;;5057198;28;20078;-60
2024/04/08 10:27:26;;;;;;;5.53;1.83;;;;;;;;;;5057700;28;20021;-60
2024/04/08 10:29:58;;;;;;;4.25;1.35;;;;;;;;;;5057170;28;20025;-60
2024/04/08 10:32:25;;;;;;;5.57;1.38;;;;;;;;;;5056978;28;20120;-59
2024/04/08 10:34:54;;;;;;;2.40;1.05;;;;;;;;;;5057658;28;20021;-60
2024/04/08 10:37:20;;;;;;;4.47;1.13;;;;;;;;;;5056482;28;20031;-60
2024/04/08 10:39:46;;;;;;;2.58;0.63;;;;;;;;;;5057519;28;20108;-60
2024/04/08 10:42:14;;;;;;;2.38;1.20;;;;;;;;;;5056817;28;20072;-57
2024/04/08 10:44:40;;;;;;;6.95;1.65;;;;;;;;;;5057269;28;20025;-58
2024/04/08 10:47:06;;;;;;;4.03;0.90;;;;;;;;;;5056750;28;20427;-58
2024/04/08 10:49:32;;;;;;;2.53;1.15;;;;;;;;;;5057182;28;20107;-58
2024/04/08 10:51:58;;;;;;;3.50;0.85;;;;;;;;;;5056777;28;20123;-58
2024/04/08 10:54:24;;;;;;;3.10;1.30;;;;;;;;;;5057196;28;20019;-58
2024/04/08 10:56:50;;;;;;;6.07;1.17;;;;;;;;;;5057101;28;20144;-58
2024/04/08 10:59:16;;;;;;;3.67;1.05;;;;;;;;;;5056799;28;20062;-58
2024/04/08 11:01:42;;;;;;;2.88;1.20;;;;;;;;;;5056967;28;20071;-58
2024/04/08 11:04:08;;;;;;;4.40;1.13;;;;;;;;;;5056289;28;20033;-58
2024/04/08 11:06:34;;;;;;;2.67;1.35;;;;;;;;;;5056466;28;20112;-58
2024/04/08 11:09:00;;;;;;;6.75;1.38;;;;;;;;;;5056915;28;20407;-58
2024/04/08 11:11:29;;;;;;;3.38;1.13;;;;;;;;;;5056785;28;20332;-58
2024/04/08 11:13:56;;;;;;;3.03;1.30;;;;;;;;;;5056168;28;20086;-58
2024/04/08 11:16:22;;;;;;;2.92;1.63;;;;;;;;;;5056675;28;20120;-58
2024/04/08 11:18:48;;;;;;;3.38;1.05;;;;;;;;;;5056492;28;20438;-58
2024/04/08 11:21:14;;;;;;;6.88;1.85;;;;;;;;;;5055878;28;20024;-58
2024/04/08 11:23:43;;;;;;;8.15;1.42;;;;;;;;;;5056551;28;20051;-58
2024/04/08 11:26:09;;;;;;;1.67;0.90;;;;;;;;;;5056031;28;20021;-59
2024/04/08 11:28:38;;;;;;;4.65;1.55;;;;;;;;;;5055867;28;20467;-59
2024/04/08 11:31:06;;;;;;;5.43;1.63;;;;;;;;;;5055980;28;20501;-58
2024/04/08 11:33:31;;;;;;;4.45;0.93;;;;;;;;;;5055868;28;20360;-58
2024/04/08 11:35:57;;;;;;;3.80;1.58;;;;;;;;;;5055581;28;20039;-58
2024/04/08 11:38:23;;;;;;;2.78;1.00;;;;;;;;;;5056191;28;20017;-58
2024/04/08 11:40:49;;;;;;;6.05;1.42;;;;;;;;;;5055876;28;20063;-58
2024/04/08 11:43:15;;;;;;;9.43;1.33;;;;;;;;;;5055914;28;20028;-58
2024/04/08 11:45:41;;;;;;;5.88;1.48;;;;;;;;;;5055753;28;20016;-58
2024/04/08 11:48:08;;;;;;;3.70;1.27;;;;;;;;;;5055410;28;20430;-58
2024/04/08 11:50:34;;;;;;;3.67;1.58;;;;;;;;;;5056457;28;20029;-58
2024/04/08 11:53:00;;;;;;;5.53;1.30;;;;;;;;;;5055512;28;20033;-58
2024/04/08 11:55:26;;;;;;;6.55;1.70;;;;;;;;;;5055860;28;20028;-59
2024/04/08 11:57:52;;;;;;;2.58;1.25;;;;;;;;;;5055995;28;20053;-58
2024/04/08 12:00:20;;;;;;;6.22;1.50;;;;;;;;;;5055409;28;20135;-58
2024/04/08 12:02:47;;;;;;;7.45;1.92;;;;;;;;;;5055310;28;20025;-59
2024/04/08 12:05:13;;;;;;;2.40;1.40;;;;;;;;;;5055307;28;20051;-58
2024/04/08 12:07:39;;;;;;;3.53;1.67;;;;;;;;;;5054933;28;20028;-58
2024/04/08 12:10:09;;;;;;;5.45;1.88;;;;;;;;;;5055838;28;20032;-59
2024/04/08 12:12:35;;;;;;;8.38;2.50;;;;;;;;;;5055659;28;20033;-59
2024/04/08 12:15:03;;;;;;;4.60;2.05;;;;;;;;;;5054067;28;20021;-58
2024/04/08 12:17:29;;;;;;;6.80;1.80;;;;;;;;;;5055819;28;20025;-59
2024/04/08 12:19:55;;;;;;;3.78;1.35;;;;;;;;;;5055148;28;20021;-58
2024/04/08 12:22:21;;;;;;;3.92;1.45;;;;;;;;;;5054974;28;20032;-59
2024/04/08 12:24:47;;;;;;;6.53;1.95;;;;;;;;;;5054775;28;20022;-58
2024/04/08 12:27:13;;;;;;;6.28;2.15;;;;;;;;;;5055408;28;20021;-59
2024/04/08 12:29:39;;;;;;;5.85;2.03;;;;;;;;;;5055647;28;20033;-59
2024/04/08 12:32:05;;;;;;;3.53;1.65;;;;;;;;;;5054627;28;20029;-58
2024/04/08 12:34:31;;;;;;;4.38;1.52;;;;;;;;;;5055478;28;20024;-59
2024/04/08 12:36:57;;;;;;;9.88;1.40;;;;;;;;;;5055011;28;20051;-59
2024/04/08 12:39:23;;;;;;;5.90;1.88;;;;;;;;;;5054722;28;20033;-59
2024/04/08 12:41:49;;;;;;;7.25;2.10;;;;;;;;;;5054602;28;20025;-58
2024/04/08 12:44:15;;;;;;;12.82;2.85;;;;;;;;;;5054416;28;20056;-59
2024/04/08 12:46:41;;;;;;;6.25;2.90;;;;;;;;;;5054735;28;20075;-59
2024/04/08 12:49:07;;;;;;;8.15;1.77;;;;;;;;;;5054737;28;20024;-59
2024/04/08 12:51:33;;;;;;;10.63;2.95;;;;;;;;;;5054301;28;20029;-59
2024/04/08 12:53:58;;;;;;;7.13;2.45;;;;;;;;;;5054388;28;20072;-59
2024/04/08 12:56:25;;;;;;;6.72;3.25;;;;;;;;;;5053841;28;20049;-59
2024/04/08 12:58:55;;;;;;;9.57;2.10;;;;;;;;;;5054620;28;20104;-59
2024/04/08 13:01:21;;;;;;;9.90;2.15;;;;;;;;;;5055092;28;20106;-59
2024/04/08 13:05:25;;;;;;;3.22;1.63;;;;;;;;;;5436081;26;20416;-60
2024/04/08 13:07:51;;;;;;;3.35;2.20;;;;;;;;;;5436805;26;19999;-60
2024/04/08 13:10:16;;;;;;;9.13;2.20;;;;;;;;;;5436822;26;20475;-59
2024/04/08 13:12:42;;;;;;;12.45;2.55;;;;;;;;;;5436404;26;19995;-60
2024/04/08 13:15:08;;;;;;;10.45;2.10;;;;;;;;;;5436374;26;19995;-60
2024/04/08 13:17:34;;;;;;;9.20;2.15;;;;;;;;;;5436382;26;19995;-60
2024/04/08 13:20:00;;;;;;;5.32;2.20;;;;;;;;;;5436442;26;19991;-60
2024/04/08 13:22:26;;;;;;;6.53;2.33;;;;;;;;;;5436288;26;20002;-59
2024/04/08 13:24:52;;;;;;;7.72;2.38;;;;;;;;;;5436519;26;19991;-60
2024/04/08 13:27:18;;;;;;;10.07;2.20;;;;;;;;;;5436381;26;20436;-60
2024/04/08 13:29:44;;;;;;;13.25;3.58;;;;;;;;;;5436415;26;19996;-60
2024/04/08 13:32:11;;;;;;;12.55;3.38;;;;;;;;;;5435950;26;19994;-60
2024/04/08 13:34:37;;;;;;;17.88;3.38;;;;;;;;;;5436243;26;19996;-60
2024/04/08 13:37:03;;;;;;;15.20;3.30;;;;;;;;;;5435938;26;19991;-60
2024/04/08 13:39:30;;;;;;;10.98;3.70;;;;;;;;;;5436200;26;19992;-60
2024/04/08 13:41:56;;;;;;;13.45;5.40;;;;;;;;;;5435796;26;20064;-59
2024/04/08 13:44:21;;;;;;;14.30;3.97;;;;;;;;;;5435706;26;20383;-60
2024/04/08 13:46:47;;;;;;;26.10;4.30;;;;;;;;;;5435665;26;20059;-60
2024/04/08 13:49:13;;;;;;;14.73;3.92;;;;;;;;;;5435717;26;19996;-60
2024/04/08 13:51:39;;;;;;;19.33;4.47;;;;;;;;;;5435643;26;20389;-60
2024/04/08 13:54:05;;;;;;;8.90;3.42;;;;;;;;;;5435699;26;19995;-60
2024/04/08 13:56:34;;;;;;;15.68;5.38;;;;;;;;;;5435585;26;19987;-60
2024/04/08 13:59:00;;;;;;;11.15;4.38;;;;;;;;;;5435629;26;20031;-60
2024/04/08 14:01:27;;;;;;;7.68;3.13;;;;;;;;;;5435622;26;20089;-60
2024/04/08 14:03:58;;;;;;;15.13;4.60;;;;;;;;;;5435493;26;19995;-60
2024/04/08 14:06:24;;;;;;;22.58;4.03;;;;;;;;;;5435505;26;19991;-60
2024/04/08 14:08:49;;;;;;;18.10;4.38;;;;;;;;;;5435501;26;19999;-58
2024/04/08 14:11:15;;;;;;;14.10;3.92;;;;;;;;;;5435461;26;20067;-60
2024/04/08 14:13:41;;;;;;;14.50;4.10;;;;;;;;;;5435461;26;20006;-59
2024/04/08 14:16:09;;;;;;;10.65;3.90;;;;;;;;;;5422991;26;19996;-59
2024/04/08 14:18:35;;;;;;;9.45;3.85;;;;;;;;;;5420229;26;19995;-59
2024/04/08 14:21:01;;;;;;;12.18;3.88;;;;;;;;;;5419900;26;20073;-60
2024/04/08 14:23:27;;;;;;;13.60;3.17;;;;;;;;;;5419714;26;19999;-60
2024/04/08 14:25:53;;;;;;;12.43;4.38;;;;;;;;;;5419609;26;19992;-60
2024/04/08 14:28:18;;;;;;;19.63;4.75;;;;;;;;;;5419870;26;20390;-60
2024/04/08 14:30:44;;;;;;;14.52;4.18;;;;;;;;;;5419722;26;20000;-59
2024/04/08 14:33:10;;;;;;;14.93;5.13;;;;;;;;;;5419730;26;20003;-60
2024/04/08 14:35:36;;;;;;;17.15;4.85;;;;;;;;;;5419971;26;19996;-60
2024/04/08 14:38:02;;;;;;;18.42;4.80;;;;;;;;;;5419888;26;20003;-60